createdAt,value
2023-04-10T00:01:56.509Z,4.20
2023-04-10T00:03:58.989Z,4.20
2023-04-10T00:06:01.087Z,4.17
2023-04-10T00:08:04.750Z,4.15
2023-04-10T00:10:07.261Z,4.14
2023-04-10T00:12:09.178Z,4.13
2023-04-10T00:14:10.700Z,4.13
2023-04-10T00:16:12.411Z,4.12
2023-04-10T00:18:14.536Z,4.13
2023-04-10T00:20:16.476Z,4.13
2023-04-10T00:22:18.514Z,4.14
2023-04-10T00:24:21.698Z,4.14
2023-04-10T00:26:23.331Z,4.14
2023-04-10T00:28:24.946Z,4.14
2023-04-10T00:30:27.075Z,4.13
2023-04-10T00:32:28.648Z,4.12
2023-04-10T00:34:30.287Z,4.11
2023-04-10T00:36:31.877Z,4.09
2023-04-10T00:38:33.863Z,4.07
2023-04-10T00:40:36.837Z,4.06
2023-04-10T00:42:38.774Z,4.04
2023-04-10T00:44:41.941Z,4.02
2023-04-10T00:46:43.740Z,4.01
2023-04-10T00:48:45.489Z,4.00
2023-04-10T00:50:47.229Z,3.99
2023-04-10T00:52:50.066Z,3.99
2023-04-10T00:54:52.273Z,3.99
2023-04-10T00:56:59.185Z,4.00
2023-04-10T00:59:01.149Z,3.97
2023-04-10T01:01:03.877Z,3.98
2023-04-10T01:03:06.374Z,3.95
2023-04-10T01:05:09.066Z,3.95
2023-04-10T01:07:19.585Z,3.93
2023-04-10T01:09:33.126Z,3.92
2023-04-10T01:11:49.206Z,3.90
2023-04-10T01:14:02.726Z,3.88
2023-04-10T01:16:09.525Z,3.86
2023-04-10T01:18:19.529Z,3.84
2023-04-10T01:20:23.630Z,3.82
2023-04-10T01:22:28.771Z,3.80
2023-04-10T01:24:50.554Z,3.81
2023-04-10T01:27:04.429Z,3.77
2023-04-10T01:29:09.994Z,3.75
2023-04-10T01:31:17.387Z,3.71
2023-04-10T01:33:21.368Z,3.67
2023-04-10T01:35:24.341Z,3.65
2023-04-10T01:37:29.324Z,3.62
2023-04-10T01:39:35.455Z,3.60
2023-04-10T01:41:41.510Z,3.57
2023-04-10T01:43:43.588Z,3.54
2023-04-10T01:45:52.655Z,3.52
2023-04-10T01:47:55.542Z,3.49
2023-04-10T01:49:58.581Z,3.46
2023-04-10T01:52:00.869Z,3.42
2023-04-10T01:54:05.155Z,3.38
2023-04-10T01:56:09.177Z,3.34
2023-04-10T01:58:11.273Z,3.34
2023-04-10T02:00:13.953Z,3.30
2023-04-10T02:02:17.507Z,3.28
2023-04-10T02:04:19.665Z,3.27
2023-04-10T02:06:29.546Z,3.25
2023-04-10T02:08:36.492Z,3.23
2023-04-10T02:10:43.856Z,3.20
2023-04-10T02:12:48.881Z,3.17
2023-04-10T02:14:53.473Z,3.14
2023-04-10T02:16:56.624Z,3.12
2023-04-10T02:19:02.478Z,3.12
2023-04-10T02:21:05.140Z,3.10
2023-04-10T02:23:09.130Z,3.10
2023-04-10T02:25:11.472Z,3.08
2023-04-10T02:27:13.111Z,3.07
2023-04-10T02:29:14.957Z,3.07
2023-04-10T02:31:16.854Z,3.05
2023-04-10T02:33:19.066Z,3.05
2023-04-10T02:35:23.483Z,3.04
2023-04-10T02:37:25.481Z,3.03
2023-04-10T02:39:27.278Z,3.01
2023-04-10T02:41:28.835Z,3.01
2023-04-10T02:43:30.666Z,2.98
2023-04-10T02:45:32.192Z,2.95
2023-04-10T02:47:34.337Z,2.93
2023-04-10T02:49:36.105Z,2.91
2023-04-10T02:51:39.350Z,2.89
2023-04-10T02:53:41.038Z,2.87
2023-04-10T02:55:42.680Z,2.84
2023-04-10T02:57:44.453Z,2.83
2023-04-10T02:59:46.426Z,2.81
2023-04-10T03:01:48.419Z,2.80
2023-04-10T03:03:50.363Z,2.79
2023-04-10T03:05:51.961Z,2.79
2023-04-10T03:07:55.175Z,2.78
2023-04-10T03:09:57.040Z,2.77
2023-04-10T03:11:58.887Z,2.76
2023-04-10T03:14:00.577Z,2.77
2023-04-10T03:16:02.453Z,2.77
2023-04-10T03:18:04.792Z,2.77
2023-04-10T03:20:08.217Z,2.80
2023-04-10T03:22:09.824Z,2.81
2023-04-10T03:24:13.249Z,2.83
2023-04-10T03:26:18.336Z,2.83
2023-04-10T03:28:19.952Z,2.84
2023-04-10T03:30:22.085Z,2.84
2023-04-10T03:32:23.788Z,2.84
2023-04-10T03:34:25.356Z,2.85
2023-04-10T03:36:26.927Z,2.85
2023-04-10T03:38:28.477Z,2.85
2023-04-10T03:40:31.580Z,2.86
2023-04-10T03:42:33.429Z,2.87
2023-04-10T03:44:35.032Z,2.87
2023-04-10T03:46:36.851Z,2.85
2023-04-10T03:48:38.700Z,2.84
2023-04-10T03:50:40.449Z,2.84
2023-04-10T03:52:42.294Z,2.83
2023-04-10T03:54:44.104Z,2.82
2023-04-10T03:56:47.187Z,2.80
2023-04-10T03:58:48.836Z,2.79
2023-04-10T04:00:50.615Z,2.79
2023-04-10T04:02:52.647Z,2.79
2023-04-10T04:04:54.862Z,2.79
2023-04-10T04:06:58.164Z,2.79
2023-04-10T04:09:00.066Z,2.78
2023-04-10T04:11:02.027Z,2.76
2023-04-10T04:13:04.980Z,2.74
2023-04-10T04:15:08.107Z,2.71
2023-04-10T04:17:09.981Z,2.68
2023-04-10T04:19:11.623Z,2.66
2023-04-10T04:21:13.251Z,2.63
2023-04-10T04:23:14.932Z,2.64
2023-04-10T04:25:17.219Z,2.64
2023-04-10T04:27:18.826Z,2.64
2023-04-10T04:29:22.000Z,2.64
2023-04-10T04:31:23.884Z,2.62
2023-04-10T04:33:25.927Z,2.61
2023-04-10T04:35:27.797Z,2.62
2023-04-10T04:37:29.592Z,2.62
2023-04-10T04:39:31.813Z,2.61
2023-04-10T04:41:33.700Z,2.61
2023-04-10T04:43:35.320Z,2.61
2023-04-10T04:45:38.390Z,2.62
2023-04-10T04:47:39.978Z,2.63
2023-04-10T04:49:41.646Z,2.64
2023-04-10T04:51:44.473Z,2.64
2023-04-10T04:53:47.414Z,2.65
2023-04-10T04:55:49.211Z,2.66
2023-04-10T04:57:51.468Z,2.68
2023-04-10T04:59:53.362Z,2.71
2023-04-10T05:01:56.791Z,2.73
2023-04-10T05:04:01.098Z,2.78
2023-04-10T05:06:05.189Z,2.81
2023-04-10T05:08:06.842Z,2.84
2023-04-10T05:10:10.706Z,2.87
2023-04-10T05:12:17.933Z,2.91
2023-04-10T05:14:21.298Z,2.96
2023-04-10T05:16:22.899Z,2.99
2023-04-10T05:18:26.169Z,3.05
2023-04-10T05:20:28.123Z,3.10
2023-04-10T05:22:29.710Z,3.14
2023-04-10T05:24:33.737Z,3.18
2023-04-10T05:26:35.474Z,3.23
2023-04-10T05:28:37.337Z,3.27
2023-04-10T05:30:39.312Z,3.30
2023-04-10T05:32:41.434Z,3.35
2023-04-10T05:34:44.660Z,3.40
2023-04-10T05:36:46.320Z,3.46
2023-04-10T05:38:47.949Z,3.51
2023-04-10T05:40:49.487Z,3.57
2023-04-10T05:42:51.059Z,3.62
2023-04-10T05:44:53.258Z,3.70
2023-04-10T05:46:55.608Z,3.77
2023-04-10T05:48:57.468Z,3.84
2023-04-10T05:51:00.485Z,3.90
2023-04-10T05:53:02.337Z,3.97
2023-04-10T05:55:08.037Z,4.05
2023-04-10T05:57:10.399Z,4.13
2023-04-10T05:59:11.943Z,4.21
2023-04-10T06:01:13.836Z,4.29
2023-04-10T06:03:15.698Z,4.36
2023-04-10T06:05:17.629Z,4.47
2023-04-10T06:07:24.896Z,4.58
2023-04-10T06:09:26.897Z,4.68
2023-04-10T06:11:28.711Z,4.77
2023-04-10T06:13:30.768Z,4.86
2023-04-10T06:15:32.385Z,4.97
2023-04-10T06:17:33.963Z,5.08
2023-04-10T06:19:35.606Z,5.19
2023-04-10T06:21:37.374Z,5.29
2023-04-10T06:23:40.626Z,5.41
2023-04-10T06:25:42.264Z,5.51
2023-04-10T06:27:44.058Z,5.62
2023-04-10T06:29:45.892Z,5.71
2023-04-10T06:31:47.547Z,5.82
2023-04-10T06:33:49.719Z,5.95
2023-04-10T06:35:51.899Z,6.05
2023-04-10T06:37:53.694Z,6.13
2023-04-10T06:40:04.097Z,6.23
2023-04-10T06:42:05.965Z,6.30
2023-04-10T06:44:07.812Z,6.38
2023-04-10T06:46:09.758Z,6.45
2023-04-10T06:48:11.855Z,6.54
2023-04-10T06:50:13.480Z,6.63
2023-04-10T06:52:15.571Z,6.73
2023-04-10T06:54:17.110Z,6.81
2023-04-10T06:56:20.214Z,6.91
2023-04-10T06:58:21.929Z,7.02
2023-04-10T07:00:24.013Z,7.13
2023-04-10T07:02:25.976Z,7.21
2023-04-10T07:04:27.781Z,7.30
2023-04-10T07:06:29.770Z,7.43
2023-04-10T07:08:32.032Z,7.55
2023-04-10T07:10:33.611Z,7.67
2023-04-10T07:12:36.665Z,7.79
2023-04-10T07:14:38.541Z,7.90
2023-04-10T07:16:40.245Z,8.01
2023-04-10T07:18:41.938Z,8.13
2023-04-10T07:20:44.107Z,8.25
2023-04-10T07:22:45.957Z,8.38
2023-04-10T07:24:47.765Z,8.48
2023-04-10T07:26:49.813Z,8.60
2023-04-10T07:28:53.179Z,8.70
2023-04-10T07:30:55.217Z,8.79
2023-04-10T07:32:57.336Z,8.86
2023-04-10T07:34:59.287Z,8.91
2023-04-10T07:37:00.929Z,8.99
2023-04-10T07:39:02.535Z,9.05
2023-04-10T07:41:05.126Z,9.12
2023-04-10T07:43:07.628Z,9.24
2023-04-10T07:45:12.359Z,9.32
2023-04-10T07:47:14.567Z,9.41
2023-04-10T07:49:16.268Z,9.52
2023-04-10T07:51:17.890Z,9.63
2023-04-10T07:53:19.519Z,9.76
2023-04-10T07:55:21.741Z,9.89
2023-04-10T07:57:23.545Z,10.04
2023-04-10T07:59:25.187Z,10.20
2023-04-10T08:01:30.533Z,10.35
2023-04-10T08:03:38.723Z,10.50
2023-04-10T08:05:40.400Z,10.64
2023-04-10T08:07:42.296Z,10.79
2023-04-10T08:09:43.892Z,10.93
2023-04-10T08:11:45.537Z,11.05
2023-04-10T08:13:47.547Z,11.18
2023-04-10T08:15:49.632Z,11.32
2023-04-10T08:17:52.583Z,11.44
2023-04-10T08:19:54.399Z,11.58
2023-04-10T08:21:55.966Z,11.72
2023-04-10T08:23:59.557Z,11.86
2023-04-10T08:26:01.627Z,12.00
2023-04-10T08:28:03.262Z,12.11
2023-04-10T08:30:06.407Z,12.24
2023-04-10T08:32:10.897Z,12.37
2023-04-10T08:34:14.230Z,12.52
2023-04-10T08:36:19.601Z,12.67
2023-04-10T08:38:22.348Z,12.85
2023-04-10T08:40:24.094Z,13.00
2023-04-10T08:42:25.712Z,13.16
2023-04-10T08:44:27.735Z,13.33
2023-04-10T08:46:34.078Z,13.48
2023-04-10T08:48:39.141Z,13.64
2023-04-10T08:50:46.709Z,13.78
2023-04-10T08:52:51.841Z,13.90
2023-04-10T08:54:55.336Z,14.01
2023-04-10T08:56:57.202Z,14.12
2023-04-10T08:58:59.765Z,14.23
2023-04-10T09:01:02.361Z,14.36
2023-04-10T09:03:04.593Z,14.49
2023-04-10T09:05:10.505Z,14.62
2023-04-10T09:07:13.533Z,14.77
2023-04-10T09:09:15.453Z,14.92
2023-04-10T09:11:17.262Z,15.07
2023-04-10T09:13:35.957Z,15.28
2023-04-10T09:15:55.998Z,15.46
2023-04-10T09:18:00.030Z,15.59
2023-04-10T09:20:02.115Z,15.73
2023-04-10T09:22:04.177Z,15.88
2023-04-10T09:24:08.122Z,16.05
2023-04-10T09:26:23.951Z,16.27
2023-04-10T09:28:25.546Z,16.41
2023-04-10T09:30:33.570Z,16.57
2023-04-10T09:32:41.043Z,16.73
2023-04-10T09:34:53.366Z,16.90
2023-04-10T09:36:56.641Z,16.99
2023-04-10T09:38:58.759Z,17.13
2023-04-10T09:41:08.762Z,17.27
2023-04-10T09:43:21.683Z,17.36
2023-04-10T09:45:23.407Z,17.43
2023-04-10T09:47:25.598Z,17.52
2023-04-10T09:49:27.851Z,17.62
2023-04-10T09:51:31.605Z,17.71
2023-04-10T09:53:48.816Z,17.87
2023-04-10T09:55:50.720Z,17.98
2023-04-10T09:57:55.915Z,18.10
2023-04-10T09:59:58.980Z,18.23
2023-04-10T10:02:01.139Z,18.35
2023-04-10T10:04:04.489Z,18.45
2023-04-10T10:06:07.887Z,18.57
2023-04-10T10:08:11.206Z,18.67
2023-04-10T10:10:13.065Z,18.76
2023-04-10T10:12:19.642Z,18.84
2023-04-10T10:14:26.069Z,18.94
2023-04-10T10:16:34.327Z,19.07
2023-04-10T10:18:43.972Z,19.16
2023-04-10T10:20:46.727Z,19.28
2023-04-10T10:22:50.710Z,19.37
2023-04-10T10:24:54.614Z,19.46
2023-04-10T10:26:59.699Z,19.57
2023-04-10T10:29:03.877Z,19.69
2023-04-10T10:31:07.641Z,19.79
2023-04-10T10:33:12.758Z,19.88
2023-04-10T10:35:14.797Z,19.96
2023-04-10T10:37:18.467Z,20.05
2023-04-10T10:39:32.245Z,20.18
2023-04-10T10:41:42.921Z,20.26
2023-04-10T10:43:52.602Z,20.34
2023-04-10T10:46:02.361Z,20.40
2023-04-10T10:48:06.091Z,20.45
2023-04-10T10:50:08.801Z,20.45
2023-04-10T10:52:10.436Z,20.51
2023-04-10T10:54:42.265Z,20.59
2023-04-10T10:56:49.109Z,20.59
2023-04-10T10:58:52.580Z,20.62
2023-04-10T11:01:19.056Z,20.73
2023-04-10T11:03:31.649Z,20.78
2023-04-10T11:05:49.619Z,20.85
2023-04-10T11:08:08.171Z,20.92
2023-04-10T11:10:09.926Z,20.96
2023-04-10T11:12:11.731Z,21.03
2023-04-10T11:14:19.313Z,21.11
2023-04-10T11:16:21.540Z,21.18
2023-04-10T11:19:06.406Z,21.25
2023-04-10T11:21:17.460Z,21.32
2023-04-10T11:23:19.391Z,21.33
2023-04-10T11:25:20.979Z,21.37
2023-04-10T11:27:40.235Z,21.42
2023-04-10T11:29:41.897Z,21.40
2023-04-10T11:31:44.457Z,21.43
2023-04-10T11:33:47.357Z,21.42
2023-04-10T11:35:49.198Z,21.41
2023-04-10T11:37:52.791Z,21.41
2023-04-10T11:40:04.393Z,21.46
2023-04-10T11:42:06.240Z,21.48
2023-04-10T11:44:10.818Z,21.49
2023-04-10T11:46:12.861Z,21.56
2023-04-10T11:48:15.359Z,21.61
2023-04-10T11:50:17.147Z,21.67
2023-04-10T11:52:25.162Z,21.71
2023-04-10T11:54:29.227Z,21.68
2023-04-10T11:56:31.118Z,21.68
2023-04-10T11:58:33.380Z,21.70
2023-04-10T12:02:50.503Z,21.89
2023-04-10T12:04:58.811Z,21.95
2023-04-10T12:07:00.634Z,22.01
2023-04-10T12:09:13.482Z,22.07
2023-04-10T12:11:18.961Z,22.09
2023-04-10T12:13:25.275Z,22.09
2023-04-10T12:15:28.066Z,22.10
2023-04-10T12:17:30.125Z,22.15
2023-04-10T12:19:33.145Z,22.19
2023-04-10T12:21:36.726Z,22.23
2023-04-10T12:23:39.485Z,22.27
2023-04-10T12:25:42.137Z,22.33
2023-04-10T12:27:49.319Z,22.37
2023-04-10T12:29:52.152Z,22.43
2023-04-10T12:31:53.758Z,22.47
2023-04-10T12:33:55.519Z,22.48
2023-04-10T12:35:57.117Z,22.50
2023-04-10T12:37:58.813Z,22.54
2023-04-10T12:40:06.096Z,22.60
2023-04-10T12:42:11.988Z,22.63
2023-04-10T12:44:15.358Z,22.68
2023-04-10T12:46:24.955Z,22.74
2023-04-10T12:48:26.582Z,22.77
2023-04-10T12:50:28.580Z,22.76
2023-04-10T12:52:30.430Z,22.76
2023-04-10T12:54:33.597Z,22.77
2023-04-10T12:56:41.440Z,22.79
2023-04-10T12:58:43.095Z,22.75
2023-04-10T13:00:46.316Z,22.69
2023-04-10T13:02:49.114Z,22.63
2023-04-10T13:04:51.449Z,22.63
2023-04-10T13:06:53.361Z,22.64
2023-04-10T13:08:55.414Z,22.62
2023-04-10T13:10:57.482Z,22.63
2023-04-10T13:12:59.540Z,22.58
2023-04-10T13:15:01.921Z,22.59
2023-04-10T13:17:04.884Z,22.60
2023-04-10T13:19:06.689Z,22.63
2023-04-10T13:21:08.812Z,22.68
2023-04-10T13:23:10.668Z,22.72
2023-04-10T13:25:13.030Z,22.77
2023-04-10T13:27:14.790Z,22.83
2023-04-10T13:29:16.436Z,22.89
2023-04-10T13:31:18.729Z,22.86
2023-04-10T13:33:21.837Z,22.83
2023-04-10T13:35:23.917Z,22.82
2023-04-10T13:37:25.510Z,22.84
2023-04-10T13:39:30.777Z,22.86
2023-04-10T13:41:32.366Z,22.86
2023-04-10T13:43:34.471Z,22.89
2023-04-10T13:45:36.205Z,22.87
2023-04-10T13:47:37.915Z,22.87
2023-04-10T13:49:41.038Z,22.87
2023-04-10T13:51:42.794Z,22.88
2023-04-10T13:53:44.440Z,22.90
2023-04-10T13:55:46.502Z,22.87
2023-04-10T13:57:48.300Z,22.77
2023-04-10T13:59:49.925Z,22.70
2023-04-10T14:01:51.612Z,22.62
2023-04-10T14:03:53.371Z,22.53
2023-04-10T14:05:56.585Z,22.52
2023-04-10T14:07:58.218Z,22.46
2023-04-10T14:09:59.877Z,22.43
2023-04-10T14:12:01.711Z,22.35
2023-04-10T14:14:03.410Z,22.31
2023-04-10T14:16:05.550Z,22.28
2023-04-10T14:18:07.521Z,22.27
2023-04-10T14:20:10.082Z,22.23
2023-04-10T14:22:13.451Z,22.25
2023-04-10T14:24:15.264Z,22.24
2023-04-10T14:26:17.454Z,22.23
2023-04-10T14:28:19.409Z,22.19
2023-04-10T14:30:21.202Z,22.17
2023-04-10T14:32:23.319Z,22.16
2023-04-10T14:34:24.954Z,22.15
2023-04-10T14:36:26.537Z,22.13
2023-04-10T14:38:29.829Z,22.10
2023-04-10T14:40:31.600Z,22.07
2023-04-10T14:42:33.491Z,22.06
2023-04-10T14:44:35.314Z,22.06
2023-04-10T14:46:37.227Z,22.08
2023-04-10T14:48:38.894Z,22.11
2023-04-10T14:50:40.535Z,22.15
2023-04-10T14:52:42.415Z,22.18
2023-04-10T14:54:45.500Z,22.20
2023-04-10T14:56:47.302Z,22.22
2023-04-10T14:58:49.164Z,22.19
2023-04-10T15:00:51.081Z,22.14
2023-04-10T15:02:52.956Z,22.06
2023-04-10T15:04:54.928Z,21.99
2023-04-10T15:06:56.506Z,21.96
2023-04-10T15:08:58.279Z,21.90
2023-04-10T15:11:01.456Z,21.88
2023-04-10T15:13:03.227Z,21.81
2023-04-10T15:17:07.165Z,21.74
2023-04-10T15:19:08.844Z,21.73
2023-04-10T15:21:10.454Z,21.71
2023-04-10T15:23:12.140Z,21.72
2023-04-10T15:25:13.748Z,21.69
2023-04-10T15:27:18.826Z,21.64
2023-04-10T15:29:20.434Z,21.61
2023-04-10T15:31:22.975Z,21.60
2023-04-10T15:33:24.571Z,21.56
2023-04-10T15:35:26.462Z,21.55
2023-04-10T15:37:28.279Z,21.54
2023-04-10T15:39:29.870Z,21.53
2023-04-10T15:41:32.376Z,21.54
2023-04-10T15:43:35.524Z,21.50
2023-04-10T15:45:38.753Z,21.46
2023-04-10T15:47:40.457Z,21.41
2023-04-10T15:49:42.153Z,21.35
2023-04-10T15:51:43.859Z,21.30
2023-04-10T15:53:45.717Z,21.26
2023-04-10T15:55:47.573Z,21.21
2023-04-10T15:57:50.658Z,21.13
2023-04-10T15:59:53.754Z,21.03
2023-04-10T16:01:56.151Z,20.93
2023-04-10T16:03:58.109Z,20.82
2023-04-10T16:06:00.048Z,20.69
2023-04-10T16:08:02.679Z,20.53
2023-04-10T16:10:04.716Z,20.37
2023-04-10T16:12:06.690Z,20.22
2023-04-10T16:14:08.289Z,20.07
2023-04-10T16:16:15.689Z,19.92
2023-04-10T16:18:17.664Z,19.77
2023-04-10T16:20:19.826Z,19.65
2023-04-10T16:22:21.632Z,19.55
2023-04-10T16:24:23.525Z,19.44
2023-04-10T16:26:25.409Z,19.35
2023-04-10T16:28:27.342Z,19.24
2023-04-10T16:30:28.954Z,19.13
2023-04-10T16:32:32.819Z,19.03
2023-04-10T16:34:34.878Z,18.93
2023-04-10T16:36:37.519Z,18.83
2023-04-10T16:38:39.316Z,18.72
2023-04-10T16:40:41.206Z,18.59
2023-04-10T16:42:44.254Z,18.51
2023-04-10T16:44:46.371Z,18.42
2023-04-10T16:46:48.548Z,18.29
2023-04-10T16:48:51.695Z,18.18
2023-04-10T16:50:53.273Z,18.08
2023-04-10T16:52:55.243Z,17.98
2023-04-10T16:54:57.084Z,17.87
2023-04-10T16:56:58.873Z,17.78
2023-04-10T16:59:00.456Z,17.71
2023-04-10T17:01:13.424Z,17.67
2023-04-10T17:03:15.490Z,17.61
2023-04-10T17:05:18.785Z,17.57
2023-04-10T17:07:20.342Z,17.52
2023-04-10T17:09:22.394Z,17.48
2023-04-10T17:11:24.314Z,17.40
2023-04-10T17:13:25.932Z,17.34
2023-04-10T17:15:27.831Z,17.26
2023-04-10T17:17:29.515Z,17.21
2023-04-10T17:19:31.737Z,17.12
2023-04-10T17:21:35.424Z,17.04
2023-04-10T17:23:36.986Z,16.96
2023-04-10T17:25:39.387Z,16.89
2023-04-10T17:27:41.076Z,16.82
2023-04-10T17:29:42.780Z,16.77
2023-04-10T17:31:44.958Z,16.71
2023-04-10T17:33:46.511Z,16.64
2023-04-10T17:35:49.695Z,16.57
2023-04-10T17:37:53.249Z,16.51
2023-04-10T17:39:54.804Z,16.43
2023-04-10T17:41:56.468Z,16.35
2023-04-10T17:43:58.335Z,16.25
2023-04-10T17:46:00.141Z,16.17
2023-04-10T17:48:01.830Z,16.10
2023-04-10T17:50:04.489Z,16.06
2023-04-10T17:52:06.160Z,16.01
2023-04-10T17:54:10.042Z,16.01
2023-04-10T17:56:18.013Z,15.99
2023-04-10T17:58:19.584Z,15.96
2023-04-10T18:00:22.108Z,15.93
2023-04-10T18:02:23.777Z,15.93
2023-04-10T18:04:25.562Z,15.90
2023-04-10T18:06:27.171Z,15.88
2023-04-10T18:08:29.023Z,15.86
2023-04-10T18:10:32.366Z,15.83
2023-04-10T18:12:34.419Z,15.81
2023-04-10T18:14:36.277Z,15.79
2023-04-10T18:16:38.075Z,15.75
2023-04-10T18:18:40.083Z,15.72
2023-04-10T18:20:41.888Z,15.68
2023-04-10T18:22:43.707Z,15.64
2023-04-10T18:24:46.472Z,15.60
2023-04-10T18:26:50.245Z,15.57
2023-04-10T18:28:52.083Z,15.54
2023-04-10T18:30:53.881Z,15.50
2023-04-10T18:32:55.589Z,15.47
2023-04-10T18:34:57.463Z,15.43
2023-04-10T18:36:59.374Z,15.38
2023-04-10T18:39:00.920Z,15.33
2023-04-10T18:41:02.508Z,15.28
2023-04-10T18:43:06.267Z,15.24
2023-04-10T18:45:08.929Z,15.21
2023-04-10T18:47:10.761Z,15.16
2023-04-10T18:49:12.613Z,15.14
2023-04-10T18:51:14.439Z,15.09
2023-04-10T18:53:16.227Z,15.04
2023-04-10T18:55:18.259Z,15.02
2023-04-10T18:57:20.032Z,14.96
2023-04-10T18:59:23.557Z,14.92
2023-04-10T19:01:25.493Z,14.89
2023-04-10T19:03:27.363Z,14.85
2023-04-10T19:05:30.828Z,14.82
2023-04-10T19:07:32.824Z,14.79
2023-04-10T19:09:34.740Z,14.75
2023-04-10T19:11:36.321Z,14.72
2023-04-10T19:13:38.717Z,14.68
2023-04-10T19:15:44.656Z,14.66
2023-04-10T19:17:46.362Z,14.61
2023-04-10T19:19:47.955Z,14.58
2023-04-10T19:21:49.599Z,14.55
2023-04-10T19:23:51.210Z,14.53
2023-04-10T19:25:53.394Z,14.50
2023-04-10T19:27:55.089Z,14.47
2023-04-10T19:29:56.733Z,14.45
2023-04-10T19:31:59.616Z,14.43
2023-04-10T19:34:01.389Z,14.40
2023-04-10T19:36:03.346Z,14.37
2023-04-10T19:38:05.166Z,14.35
2023-04-10T19:40:08.008Z,14.32
2023-04-10T19:42:09.571Z,14.30
2023-04-10T19:44:11.372Z,14.27
2023-04-10T19:46:16.799Z,14.25
2023-04-10T19:48:20.335Z,14.22
2023-04-10T19:50:22.654Z,14.21
2023-04-10T19:52:24.634Z,14.18
2023-04-10T19:54:26.354Z,14.13
2023-04-10T19:56:28.287Z,14.11
2023-04-10T19:58:39.930Z,14.10
2023-04-10T20:00:43.156Z,14.06
2023-04-10T20:02:44.866Z,14.07
2023-04-10T20:04:49.044Z,14.04
2023-04-10T20:06:50.621Z,14.04
2023-04-10T20:08:52.363Z,14.02
2023-04-10T20:10:56.086Z,14.01
2023-04-10T20:12:59.052Z,13.98
2023-04-10T20:15:01.228Z,13.96
2023-04-10T20:17:02.913Z,13.94
2023-04-10T20:19:05.792Z,13.93
2023-04-10T20:21:09.443Z,13.91
2023-04-10T20:23:11.477Z,13.92
2023-04-10T20:25:13.139Z,13.87
2023-04-10T20:27:15.517Z,13.86
2023-04-10T20:29:17.574Z,13.85
2023-04-10T20:31:19.536Z,13.83
2023-04-10T20:33:21.716Z,13.81
2023-04-10T20:35:23.760Z,13.80
2023-04-10T20:37:26.809Z,13.78
2023-04-10T20:39:28.649Z,13.79
2023-04-10T20:41:30.257Z,13.76
2023-04-10T20:43:32.532Z,13.75
2023-04-10T20:45:34.622Z,13.73
2023-04-10T20:47:36.684Z,13.70
2023-04-10T20:49:38.283Z,13.68
2023-04-10T20:51:40.092Z,13.67
2023-04-10T20:53:43.233Z,13.66
2023-04-10T20:55:44.812Z,13.64
2023-04-10T20:57:46.634Z,13.64
2023-04-10T20:59:48.486Z,13.63
2023-04-10T21:01:50.190Z,13.57
2023-04-10T21:03:52.054Z,13.57
2023-04-10T21:05:54.172Z,13.55
2023-04-10T21:07:56.343Z,13.54
2023-04-10T21:09:59.401Z,13.54
2023-04-10T21:12:01.085Z,13.53
2023-04-10T21:14:02.699Z,13.51
2023-04-10T21:16:05.163Z,13.49
2023-04-10T21:18:06.842Z,13.48
2023-04-10T21:20:09.433Z,13.46
2023-04-10T21:22:11.229Z,13.46
2023-04-10T21:24:12.915Z,13.45
2023-04-10T21:26:16.322Z,13.43
2023-04-10T21:28:19.080Z,13.39
2023-04-10T21:30:20.940Z,13.39
2023-04-10T21:32:22.708Z,13.37
2023-04-10T21:34:24.593Z,13.36
2023-04-10T21:36:26.204Z,13.33
2023-04-10T21:38:28.005Z,13.32
2023-04-10T21:40:29.657Z,13.32
2023-04-10T21:42:33.307Z,13.29
2023-04-10T21:44:34.966Z,13.27
2023-04-10T21:46:36.804Z,13.26
2023-04-10T21:48:38.879Z,13.24
2023-04-10T21:50:40.647Z,13.23
2023-04-10T21:52:42.268Z,13.20
2023-04-10T21:54:44.232Z,13.18
2023-04-10T21:56:46.050Z,13.18
2023-04-10T21:58:49.578Z,13.17
2023-04-10T22:00:51.774Z,13.13
2023-04-10T22:02:53.886Z,13.13
2023-04-10T22:04:55.562Z,13.11
2023-04-10T22:06:57.356Z,13.07
2023-04-10T22:08:59.188Z,13.07
2023-04-10T22:11:01.130Z,13.04
2023-04-10T22:13:02.779Z,13.03
2023-04-10T22:15:07.627Z,13.01
2023-04-10T22:17:09.561Z,13.00
2023-04-10T22:19:11.545Z,12.99
2023-04-10T22:21:13.511Z,12.98
2023-04-10T22:23:15.128Z,12.96
2023-04-10T22:25:17.158Z,12.96
2023-04-10T22:27:18.748Z,12.94
2023-04-10T22:29:20.387Z,12.93
2023-04-10T22:31:23.473Z,12.91
2023-04-10T22:33:25.406Z,12.89
2023-04-10T22:35:27.109Z,12.89
2023-04-10T22:37:29.002Z,12.88
2023-04-10T22:39:30.849Z,12.86
2023-04-10T22:41:33.288Z,12.84
2023-04-10T22:43:35.099Z,12.84
2023-04-10T22:45:36.957Z,12.82
2023-04-10T22:47:40.187Z,12.81
2023-04-10T22:49:42.234Z,12.79
2023-04-10T22:51:44.078Z,12.78
2023-04-10T22:53:46.305Z,12.75
2023-04-10T22:55:48.405Z,12.73
2023-04-10T22:57:50.010Z,12.71
2023-04-10T22:59:51.607Z,12.67
2023-04-10T23:01:53.547Z,12.67
2023-04-10T23:03:57.115Z,12.63
2023-04-10T23:05:58.663Z,12.63
2023-04-10T23:08:00.253Z,12.62
2023-04-10T23:10:02.112Z,12.59
2023-04-10T23:12:04.025Z,12.57
2023-04-10T23:14:05.996Z,12.56
2023-04-10T23:16:08.980Z,12.53
2023-04-10T23:18:10.935Z,12.53
2023-04-10T23:20:14.265Z,12.52
2023-04-10T23:22:15.916Z,12.50
2023-04-10T23:24:17.775Z,12.50
2023-04-10T23:26:20.496Z,12.49
2023-04-10T23:28:22.108Z,12.46
2023-04-10T23:30:24.180Z,12.45
2023-04-10T23:32:26.086Z,12.44
2023-04-10T23:34:27.696Z,12.43
2023-04-10T23:36:30.648Z,12.41
2023-04-10T23:38:32.754Z,12.41
2023-04-10T23:40:34.758Z,12.39
2023-04-10T23:42:36.611Z,12.38
2023-04-10T23:44:38.770Z,12.38
2023-04-10T23:46:40.381Z,12.35
2023-04-10T23:48:41.999Z,12.36
2023-04-10T23:50:43.614Z,12.34
2023-04-10T23:52:49.705Z,12.34
2023-04-10T23:54:51.357Z,12.34
2023-04-10T23:56:53.163Z,12.31
2023-04-10T23:58:55.415Z,12.31
